YXDG weather

Dorrigo Helipad
Dorrigo, New South Wales, Australia

Public forecast

Using degrees Celsius for public forecast. Weather courtesy of forecast.io.

Closest aviation weather report (METAR) to Dorrigo Helipad

Closest report is Grafton Airport, 38.8 nm (71.8 km) NNE. Retrieved 2020/02/23 07:00 UTC (1 hour ago):

YGFN 230700Z AUTO 17005KT 9999 // OVC057 23/16 Q1021

Closest aviation forecast (TAF) to Dorrigo Helipad

Closest forecast is Taree Airport, 93.4 nm (173.0 km) S. Retrieved 2020/02/23 08:03 UTC (5 minutes ago):

TAF YTRE 230659Z 2308/2320 07010KT 9999 SCT035 FM231100 VRB03KT 9999 SCT030 FM231600 28005KT 9999 -SHRA SCT020 BKN040 INTER 2316/2320 4000 SHRA BKN020